sensor_id;sensor_type;location;lat;lon;timestamp;temperature;humidity
8643;DHT22;4359;49.358;11.256;2022-12-15T00:01:00;-3.80;99.90
8643;DHT22;4359;49.358;11.256;2022-12-15T00:03:44;-3.80;99.90
8643;DHT22;4359;49.358;11.256;2022-12-15T00:06:29;-3.80;99.90
8643;DHT22;4359;49.358;11.256;2022-12-15T00:09:13;-3.80;99.90
8643;DHT22;4359;49.358;11.256;2022-12-15T00:11:57;-3.80;99.90
8643;DHT22;4359;49.358;11.256;2022-12-15T00:14:41;-3.80;99.90
8643;DHT22;4359;49.358;11.256;2022-12-15T00:17:25;-3.80;99.90
8643;DHT22;4359;49.358;11.256;2022-12-15T00:20:10;-3.80;99.90
8643;DHT22;4359;49.358;11.256;2022-12-15T00:22:54;-3.80;99.90
8643;DHT22;4359;49.358;11.256;2022-12-15T00:25:38;-3.80;99.90
8643;DHT22;4359;49.358;11.256;2022-12-15T00:28:22;-3.80;99.90
8643;DHT22;4359;49.358;11.256;2022-12-15T00:31:07;-3.80;99.90
8643;DHT22;4359;49.358;11.256;2022-12-15T00:33:51;-3.80;99.90
8643;DHT22;4359;49.358;11.256;2022-12-15T00:36:35;-3.80;99.90
8643;DHT22;4359;49.358;11.256;2022-12-15T00:39:19;-3.80;99.90
8643;DHT22;4359;49.358;11.256;2022-12-15T00:41:45;-3.80;99.90
8643;DHT22;4359;49.358;11.256;2022-12-15T00:44:11;-3.80;99.90
8643;DHT22;4359;49.358;11.256;2022-12-15T00:46:36;-3.80;99.90
8643;DHT22;4359;49.358;11.256;2022-12-15T00:49:23;-3.80;99.90
8643;DHT22;4359;49.358;11.256;2022-12-15T00:52:08;-3.80;99.90
8643;DHT22;4359;49.358;11.256;2022-12-15T00:54:52;-3.80;99.90
8643;DHT22;4359;49.358;11.256;2022-12-15T00:57:37;-3.90;99.90
8643;DHT22;4359;49.358;11.256;2022-12-15T01:00:21;-3.80;99.90
8643;DHT22;4359;49.358;11.256;2022-12-15T01:03:12;-3.80;99.90
8643;DHT22;4359;49.358;11.256;2022-12-15T01:05:56;-3.80;99.90
8643;DHT22;4359;49.358;11.256;2022-12-15T01:08:41;-3.80;99.90
8643;DHT22;4359;49.358;11.256;2022-12-15T01:11:25;-3.90;99.90
8643;DHT22;4359;49.358;11.256;2022-12-15T01:14:09;-3.80;99.90
8643;DHT22;4359;49.358;11.256;2022-12-15T01:16:53;-3.70;99.90
8643;DHT22;4359;49.358;11.256;2022-12-15T01:19:38;-3.80;99.90
8643;DHT22;4359;49.358;11.256;2022-12-15T01:22:22;-3.80;99.90
8643;DHT22;4359;49.358;11.256;2022-12-15T01:24:47;-3.80;99.90
8643;DHT22;4359;49.358;11.256;2022-12-15T01:27:13;-3.80;99.90
8643;DHT22;4359;49.358;11.256;2022-12-15T01:29:38;-3.80;99.90
8643;DHT22;4359;49.358;11.256;2022-12-15T01:32:04;-3.80;99.90
8643;DHT22;4359;49.358;11.256;2022-12-15T01:34:30;-3.80;99.90
8643;DHT22;4359;49.358;11.256;2022-12-15T01:36:55;-3.80;99.90
8643;DHT22;4359;49.358;11.256;2022-12-15T01:39:20;-3.80;99.90
8643;DHT22;4359;49.358;11.256;2022-12-15T01:41:46;-3.80;99.90
8643;DHT22;4359;49.358;11.256;2022-12-15T01:44:22;-3.80;99.90
8643;DHT22;4359;49.358;11.256;2022-12-15T01:46:49;-3.80;99.90
8643;DHT22;4359;49.358;11.256;2022-12-15T01:49:17;-3.80;99.90
8643;DHT22;4359;49.358;11.256;2022-12-15T01:51:48;-3.80;99.90
8643;DHT22;4359;49.358;11.256;2022-12-15T01:56:46;-3.80;99.90
8643;DHT22;4359;49.358;11.256;2022-12-15T01:59:14;-3.80;99.90
8643;DHT22;4359;49.358;11.256;2022-12-15T02:01:40;-3.80;99.90
8643;DHT22;4359;49.358;11.256;2022-12-15T02:04:06;-3.80;99.90
8643;DHT22;4359;49.358;11.256;2022-12-15T02:06:32;-3.80;99.90
8643;DHT22;4359;49.358;11.256;2022-12-15T02:08:59;-3.80;99.90
8643;DHT22;4359;49.358;11.256;2022-12-15T02:21:32;-3.80;99.90
8643;DHT22;4359;49.358;11.256;2022-12-15T02:32:02;-3.90;99.90
8643;DHT22;4359;49.358;11.256;2022-12-15T02:37:07;-3.90;99.90
8643;DHT22;4359;49.358;11.256;2022-12-15T02:39:34;-3.90;99.90
8643;DHT22;4359;49.358;11.256;2022-12-15T02:42:00;-3.90;99.90
8643;DHT22;4359;49.358;11.256;2022-12-15T02:44:27;-4.00;99.90
8643;DHT22;4359;49.358;11.256;2022-12-15T02:59:57;-4.00;99.90
8643;DHT22;4359;49.358;11.256;2022-12-15T03:02:25;-4.00;99.90
8643;DHT22;4359;49.358;11.256;2022-12-15T03:04:52;-4.10;99.90
8643;DHT22;4359;49.358;11.256;2022-12-15T03:07:18;-4.10;99.90
8643;DHT22;4359;49.358;11.256;2022-12-15T03:09:43;-4.00;99.90
8643;DHT22;4359;49.358;11.256;2022-12-15T03:12:09;-4.00;99.90
8643;DHT22;4359;49.358;11.256;2022-12-15T03:14:35;-4.00;99.90
8643;DHT22;4359;49.358;11.256;2022-12-15T03:17:00;-4.00;99.90
8643;DHT22;4359;49.358;11.256;2022-12-15T03:19:26;-3.90;99.90
8643;DHT22;4359;49.358;11.256;2022-12-15T03:21:51;-4.00;99.90
8643;DHT22;4359;49.358;11.256;2022-12-15T03:24:17;-4.00;99.90
8643;DHT22;4359;49.358;11.256;2022-12-15T03:26:43;-4.00;99.90
8643;DHT22;4359;49.358;11.256;2022-12-15T03:29:08;-4.00;99.90
8643;DHT22;4359;49.358;11.256;2022-12-15T03:31:34;-4.00;99.90
8643;DHT22;4359;49.358;11.256;2022-12-15T03:34:00;-4.00;99.90
8643;DHT22;4359;49.358;11.256;2022-12-15T03:36:26;-4.00;99.90
8643;DHT22;4359;49.358;11.256;2022-12-15T03:38:51;-4.00;99.90
8643;DHT22;4359;49.358;11.256;2022-12-15T03:41:17;-4.00;99.90
8643;DHT22;4359;49.358;11.256;2022-12-15T03:43:43;-4.00;99.90
8643;DHT22;4359;49.358;11.256;2022-12-15T03:46:10;-4.00;99.90
8643;DHT22;4359;49.358;11.256;2022-12-15T03:48:36;-3.90;99.90
8643;DHT22;4359;49.358;11.256;2022-12-15T03:51:01;-3.90;99.90
8643;DHT22;4359;49.358;11.256;2022-12-15T03:53:27;-3.90;99.90
8643;DHT22;4359;49.358;11.256;2022-12-15T03:55:52;-3.90;99.90
8643;DHT22;4359;49.358;11.256;2022-12-15T03:58:18;-3.90;99.90
8643;DHT22;4359;49.358;11.256;2022-12-15T04:00:43;-3.90;99.90
8643;DHT22;4359;49.358;11.256;2022-12-15T04:03:09;-4.00;99.90
8643;DHT22;4359;49.358;11.256;2022-12-15T04:05:35;-4.00;99.90
8643;DHT22;4359;49.358;11.256;2022-12-15T04:08:01;-4.00;99.90
8643;DHT22;4359;49.358;11.256;2022-12-15T04:10:28;-3.90;99.90
8643;DHT22;4359;49.358;11.256;2022-12-15T04:13:00;-4.00;99.90
8643;DHT22;4359;49.358;11.256;2022-12-15T04:15:26;-4.00;99.90
8643;DHT22;4359;49.358;11.256;2022-12-15T04:17:52;-3.90;99.90
8643;DHT22;4359;49.358;11.256;2022-12-15T04:20:18;-3.90;99.90
8643;DHT22;4359;49.358;11.256;2022-12-15T04:22:45;-3.90;99.90
8643;DHT22;4359;49.358;11.256;2022-12-15T04:25:11;-3.90;99.90
8643;DHT22;4359;49.358;11.256;2022-12-15T04:27:55;-3.90;99.90
8643;DHT22;4359;49.358;11.256;2022-12-15T04:30:41;-4.00;99.90
8643;DHT22;4359;49.358;11.256;2022-12-15T04:33:26;-4.00;99.90
8643;DHT22;4359;49.358;11.256;2022-12-15T04:36:11;-4.00;99.90
8643;DHT22;4359;49.358;11.256;2022-12-15T04:38:56;-4.10;99.90
8643;DHT22;4359;49.358;11.256;2022-12-15T04:41:40;-4.10;99.90
8643;DHT22;4359;49.358;11.256;2022-12-15T04:44:25;-4.10;99.90
8643;DHT22;4359;49.358;11.256;2022-12-15T04:47:09;-4.00;99.90
8643;DHT22;4359;49.358;11.256;2022-12-15T04:49:53;-4.00;99.90
8643;DHT22;4359;49.358;11.256;2022-12-15T04:52:37;-4.00;99.90
8643;DHT22;4359;49.358;11.256;2022-12-15T04:55:22;-4.00;99.90
8643;DHT22;4359;49.358;11.256;2022-12-15T04:58:06;-4.00;99.90
8643;DHT22;4359;49.358;11.256;2022-12-15T05:00:51;-4.00;99.90
8643;DHT22;4359;49.358;11.256;2022-12-15T05:03:35;-3.90;99.90
8643;DHT22;4359;49.358;11.256;2022-12-15T05:06:20;-3.90;99.90
8643;DHT22;4359;49.358;11.256;2022-12-15T05:09:04;-3.90;99.90
8643;DHT22;4359;49.358;11.256;2022-12-15T05:11:48;-3.90;99.90
8643;DHT22;4359;49.358;11.256;2022-12-15T05:14:32;-3.90;99.90
8643;DHT22;4359;49.358;11.256;2022-12-15T05:17:16;-3.90;99.90
8643;DHT22;4359;49.358;11.256;2022-12-15T05:20:01;-3.90;99.90
8643;DHT22;4359;49.358;11.256;2022-12-15T05:22:45;-3.80;99.90
8643;DHT22;4359;49.358;11.256;2022-12-15T05:25:29;-3.90;99.90
8643;DHT22;4359;49.358;11.256;2022-12-15T05:28:14;-3.90;99.90
8643;DHT22;4359;49.358;11.256;2022-12-15T05:30:58;-3.90;99.90
8643;DHT22;4359;49.358;11.256;2022-12-15T05:33:42;-3.90;99.90
8643;DHT22;4359;49.358;11.256;2022-12-15T05:36:07;-3.90;99.90
8643;DHT22;4359;49.358;11.256;2022-12-15T05:38:33;-4.00;99.90
8643;DHT22;4359;49.358;11.256;2022-12-15T05:40:59;-4.00;99.90
8643;DHT22;4359;49.358;11.256;2022-12-15T05:43:24;-4.00;99.90
8643;DHT22;4359;49.358;11.256;2022-12-15T05:45:50;-4.00;99.90
8643;DHT22;4359;49.358;11.256;2022-12-15T05:48:16;-4.00;99.90
8643;DHT22;4359;49.358;11.256;2022-12-15T05:50:41;-4.00;99.90
8643;DHT22;4359;49.358;11.256;2022-12-15T05:53:07;-4.10;99.90
8643;DHT22;4359;49.358;11.256;2022-12-15T05:55:32;-4.10;99.90
8643;DHT22;4359;49.358;11.256;2022-12-15T05:57:58;-4.10;99.90
8643;DHT22;4359;49.358;11.256;2022-12-15T06:00:23;-4.10;99.90
8643;DHT22;4359;49.358;11.256;2022-12-15T06:02:49;-4.10;99.90
8643;DHT22;4359;49.358;11.256;2022-12-15T06:05:14;-4.00;99.90
8643;DHT22;4359;49.358;11.256;2022-12-15T06:07:40;-4.00;99.90
8643;DHT22;4359;49.358;11.256;2022-12-15T06:10:06;-4.00;99.90
8643;DHT22;4359;49.358;11.256;2022-12-15T06:12:32;-4.00;99.90
8643;DHT22;4359;49.358;11.256;2022-12-15T06:14:57;-4.00;99.90
8643;DHT22;4359;49.358;11.256;2022-12-15T06:17:23;-4.00;99.90
8643;DHT22;4359;49.358;11.256;2022-12-15T06:19:49;-3.90;99.90
8643;DHT22;4359;49.358;11.256;2022-12-15T06:22:14;-3.90;99.90
8643;DHT22;4359;49.358;11.256;2022-12-15T06:24:40;-3.90;99.90
8643;DHT22;4359;49.358;11.256;2022-12-15T06:27:05;-3.90;99.90
8643;DHT22;4359;49.358;11.256;2022-12-15T06:29:31;-4.00;99.90
8643;DHT22;4359;49.358;11.256;2022-12-15T06:31:56;-4.00;99.90
8643;DHT22;4359;49.358;11.256;2022-12-15T06:34:22;-4.00;99.90
8643;DHT22;4359;49.358;11.256;2022-12-15T06:36:47;-4.10;99.90
8643;DHT22;4359;49.358;11.256;2022-12-15T06:39:13;-4.10;99.90
8643;DHT22;4359;49.358;11.256;2022-12-15T06:41:39;-4.10;99.90
8643;DHT22;4359;49.358;11.256;2022-12-15T06:44:05;-4.10;99.90
8643;DHT22;4359;49.358;11.256;2022-12-15T06:46:31;-4.00;99.90
8643;DHT22;4359;49.358;11.256;2022-12-15T06:48:57;-4.00;99.90
8643;DHT22;4359;49.358;11.256;2022-12-15T06:51:23;-3.90;99.90
8643;DHT22;4359;49.358;11.256;2022-12-15T06:53:49;-3.90;99.90
8643;DHT22;4359;49.358;11.256;2022-12-15T06:58:45;-3.90;99.90
8643;DHT22;4359;49.358;11.256;2022-12-15T07:01:11;-3.90;99.90
8643;DHT22;4359;49.358;11.256;2022-12-15T07:03:36;-3.90;99.90
8643;DHT22;4359;49.358;11.256;2022-12-15T07:06:04;-3.90;99.90
8643;DHT22;4359;49.358;11.256;2022-12-15T07:08:29;-3.80;99.90
8643;DHT22;4359;49.358;11.256;2022-12-15T07:10:55;-3.80;99.90
8643;DHT22;4359;49.358;11.256;2022-12-15T07:13:21;-3.80;99.90
8643;DHT22;4359;49.358;11.256;2022-12-15T07:15:46;-3.80;99.90
8643;DHT22;4359;49.358;11.256;2022-12-15T07:18:14;-3.80;99.90
8643;DHT22;4359;49.358;11.256;2022-12-15T07:20:40;-3.70;99.90
8643;DHT22;4359;49.358;11.256;2022-12-15T07:23:05;-3.70;99.90
8643;DHT22;4359;49.358;11.256;2022-12-15T07:25:37;-3.70;99.90
8643;DHT22;4359;49.358;11.256;2022-12-15T07:28:03;-3.70;99.90
8643;DHT22;4359;49.358;11.256;2022-12-15T07:30:29;-3.70;99.90
8643;DHT22;4359;49.358;11.256;2022-12-15T07:32:54;-3.70;99.90
8643;DHT22;4359;49.358;11.256;2022-12-15T07:35:20;-3.70;99.90
8643;DHT22;4359;49.358;11.256;2022-12-15T07:37:46;-3.70;99.90
8643;DHT22;4359;49.358;11.256;2022-12-15T07:40:11;-3.70;99.90
8643;DHT22;4359;49.358;11.256;2022-12-15T07:42:37;-3.70;99.90
8643;DHT22;4359;49.358;11.256;2022-12-15T07:45:03;-3.70;99.90
8643;DHT22;4359;49.358;11.256;2022-12-15T07:47:29;-3.70;99.90
8643;DHT22;4359;49.358;11.256;2022-12-15T07:49:55;-3.70;99.90
8643;DHT22;4359;49.358;11.256;2022-12-15T07:52:20;-3.70;99.90
8643;DHT22;4359;49.358;11.256;2022-12-15T07:54:46;-3.60;99.90
8643;DHT22;4359;49.358;11.256;2022-12-15T07:57:11;-3.60;99.90
8643;DHT22;4359;49.358;11.256;2022-12-15T07:59:37;-3.50;99.90
8643;DHT22;4359;49.358;11.256;2022-12-15T08:02:03;-3.40;99.90
8643;DHT22;4359;49.358;11.256;2022-12-15T08:04:29;-3.30;99.90
8643;DHT22;4359;49.358;11.256;2022-12-15T08:06:54;-3.20;99.90
8643;DHT22;4359;49.358;11.256;2022-12-15T08:09:20;-3.00;99.90
8643;DHT22;4359;49.358;11.256;2022-12-15T08:11:45;-3.00;99.90
8643;DHT22;4359;49.358;11.256;2022-12-15T08:14:11;-2.90;99.90
8643;DHT22;4359;49.358;11.256;2022-12-15T08:16:37;-2.90;99.90
8643;DHT22;4359;49.358;11.256;2022-12-15T08:19:05;-2.90;99.90
8643;DHT22;4359;49.358;11.256;2022-12-15T08:21:32;-3.00;99.90
8643;DHT22;4359;49.358;11.256;2022-12-15T08:23:58;-3.00;99.90
8643;DHT22;4359;49.358;11.256;2022-12-15T08:26:25;-2.90;99.90
8643;DHT22;4359;49.358;11.256;2022-12-15T08:28:51;-2.90;99.90
8643;DHT22;4359;49.358;11.256;2022-12-15T08:31:21;-2.90;99.90
8643;DHT22;4359;49.358;11.256;2022-12-15T08:33:47;-2.90;99.90
8643;DHT22;4359;49.358;11.256;2022-12-15T08:36:13;-2.80;99.90
8643;DHT22;4359;49.358;11.256;2022-12-15T08:38:39;-2.80;99.90
8643;DHT22;4359;49.358;11.256;2022-12-15T08:43:58;-2.50;99.90
8643;DHT22;4359;49.358;11.256;2022-12-15T08:46:28;-2.40;99.90
8643;DHT22;4359;49.358;11.256;2022-12-15T08:48:54;-2.30;99.90
8643;DHT22;4359;49.358;11.256;2022-12-15T08:51:20;-2.20;99.90
8643;DHT22;4359;49.358;11.256;2022-12-15T08:53:46;-1.80;99.90
8643;DHT22;4359;49.358;11.256;2022-12-15T08:56:13;-1.70;99.90
8643;DHT22;4359;49.358;11.256;2022-12-15T08:58:40;-1.60;99.90
8643;DHT22;4359;49.358;11.256;2022-12-15T09:01:06;-1.50;99.90
8643;DHT22;4359;49.358;11.256;2022-12-15T09:03:33;-1.30;99.90
8643;DHT22;4359;49.358;11.256;2022-12-15T09:06:03;-1.50;99.90
8643;DHT22;4359;49.358;11.256;2022-12-15T09:08:29;-1.40;99.90
8643;DHT22;4359;49.358;11.256;2022-12-15T09:10:58;-1.30;99.90
8643;DHT22;4359;49.358;11.256;2022-12-15T09:13:24;-1.10;99.90
8643;DHT22;4359;49.358;11.256;2022-12-15T09:15:56;-0.80;99.90
8643;DHT22;4359;49.358;11.256;2022-12-15T09:18:21;-0.70;99.90
8643;DHT22;4359;49.358;11.256;2022-12-15T09:20:47;-0.60;99.90
8643;DHT22;4359;49.358;11.256;2022-12-15T09:23:13;-0.70;99.90
8643;DHT22;4359;49.358;11.256;2022-12-15T09:25:38;-0.60;99.90
8643;DHT22;4359;49.358;11.256;2022-12-15T09:28:04;-0.50;99.90
8643;DHT22;4359;49.358;11.256;2022-12-15T09:30:29;-0.60;99.90
8643;DHT22;4359;49.358;11.256;2022-12-15T09:32:55;-0.70;99.90
8643;DHT22;4359;49.358;11.256;2022-12-15T09:35:20;-0.80;99.90
8643;DHT22;4359;49.358;11.256;2022-12-15T09:37:46;-0.70;99.90
8643;DHT22;4359;49.358;11.256;2022-12-15T09:40:11;-0.50;99.90
8643;DHT22;4359;49.358;11.256;2022-12-15T09:42:37;-0.40;99.90
8643;DHT22;4359;49.358;11.256;2022-12-15T09:47:31;-0.10;99.90
8643;DHT22;4359;49.358;11.256;2022-12-15T09:50:02;0.00;99.90
8643;DHT22;4359;49.358;11.256;2022-12-15T09:52:30;0.10;99.90
8643;DHT22;4359;49.358;11.256;2022-12-15T09:54:57;0.00;99.90
8643;DHT22;4359;49.358;11.256;2022-12-15T09:57:30;-0.10;99.90
8643;DHT22;4359;49.358;11.256;2022-12-15T10:00:01;0.20;99.90
8643;DHT22;4359;49.358;11.256;2022-12-15T10:07:41;0.00;99.90
8643;DHT22;4359;49.358;11.256;2022-12-15T10:10:16;0.10;99.90
8643;DHT22;4359;49.358;11.256;2022-12-15T10:12:45;0.10;99.90
8643;DHT22;4359;49.358;11.256;2022-12-15T10:15:22;0.20;99.90
8643;DHT22;4359;49.358;11.256;2022-12-15T10:17:55;0.00;99.90
8643;DHT22;4359;49.358;11.256;2022-12-15T10:20:24;-0.10;99.90
8643;DHT22;4359;49.358;11.256;2022-12-15T10:22:51;-0.10;99.90
8643;DHT22;4359;49.358;11.256;2022-12-15T10:30:17;0.10;99.90
8643;DHT22;4359;49.358;11.256;2022-12-15T10:32:47;0.20;99.90
8643;DHT22;4359;49.358;11.256;2022-12-15T10:35:21;0.40;99.90
8643;DHT22;4359;49.358;11.256;2022-12-15T10:37:47;0.40;99.90
8643;DHT22;4359;49.358;11.256;2022-12-15T10:40:19;0.70;99.90
8643;DHT22;4359;49.358;11.256;2022-12-15T10:43:03;0.60;99.90
8643;DHT22;4359;49.358;11.256;2022-12-15T10:45:37;0.80;99.90
8643;DHT22;4359;49.358;11.256;2022-12-15T10:48:03;0.70;99.90
8643;DHT22;4359;49.358;11.256;2022-12-15T10:50:31;0.80;99.90
8643;DHT22;4359;49.358;11.256;2022-12-15T10:52:57;0.80;99.90
8643;DHT22;4359;49.358;11.256;2022-12-15T10:57:59;0.80;99.90
8643;DHT22;4359;49.358;11.256;2022-12-15T11:00:26;0.90;99.90
8643;DHT22;4359;49.358;11.256;2022-12-15T11:02:52;1.00;99.90
8643;DHT22;4359;49.358;11.256;2022-12-15T11:05:18;1.20;99.90
8643;DHT22;4359;49.358;11.256;2022-12-15T11:10:28;1.50;99.90
8643;DHT22;4359;49.358;11.256;2022-12-15T11:13:18;1.30;99.90
8643;DHT22;4359;49.358;11.256;2022-12-15T11:15:53;1.40;99.90
8643;DHT22;4359;49.358;11.256;2022-12-15T11:18:22;1.30;99.90
8643;DHT22;4359;49.358;11.256;2022-12-15T11:20:50;1.00;99.90
8643;DHT22;4359;49.358;11.256;2022-12-15T11:23:38;0.90;99.90
8643;DHT22;4359;49.358;11.256;2022-12-15T11:26:10;0.90;99.90
8643;DHT22;4359;49.358;11.256;2022-12-15T11:28:42;0.70;99.90
8643;DHT22;4359;49.358;11.256;2022-12-15T11:33:50;0.70;99.90
8643;DHT22;4359;49.358;11.256;2022-12-15T11:36:21;0.90;99.90
8643;DHT22;4359;49.358;11.256;2022-12-15T11:38:51;1.10;99.90
8643;DHT22;4359;49.358;11.256;2022-12-15T11:41:43;1.20;99.90
8643;DHT22;4359;49.358;11.256;2022-12-15T11:46:53;1.10;99.90
8643;DHT22;4359;49.358;11.256;2022-12-15T11:51:50;0.70;99.90
8643;DHT22;4359;49.358;11.256;2022-12-15T11:56:58;0.50;99.90
8643;DHT22;4359;49.358;11.256;2022-12-15T12:04:24;0.50;99.90
8643;DHT22;4359;49.358;11.256;2022-12-15T12:09:35;0.60;99.90
8643;DHT22;4359;49.358;11.256;2022-12-15T12:19:57;0.90;99.90
8643;DHT22;4359;49.358;11.256;2022-12-15T12:22:25;0.90;99.90
8643;DHT22;4359;49.358;11.256;2022-12-15T12:24:53;1.00;99.90
8643;DHT22;4359;49.358;11.256;2022-12-15T12:29:54;1.00;99.90
8643;DHT22;4359;49.358;11.256;2022-12-15T12:37:55;1.10;99.90
8643;DHT22;4359;49.358;11.256;2022-12-15T12:42:54;1.00;99.90
8643;DHT22;4359;49.358;11.256;2022-12-15T12:45:22;1.00;99.90
8643;DHT22;4359;49.358;11.256;2022-12-15T12:47:49;1.10;99.90
8643;DHT22;4359;49.358;11.256;2022-12-15T12:50:17;1.10;99.90
8643;DHT22;4359;49.358;11.256;2022-12-15T12:52:49;1.10;99.90
8643;DHT22;4359;49.358;11.256;2022-12-15T12:55:28;1.00;99.90
8643;DHT22;4359;49.358;11.256;2022-12-15T12:58:00;0.70;99.90
8643;DHT22;4359;49.358;11.256;2022-12-15T13:00:29;0.50;99.90
8643;DHT22;4359;49.358;11.256;2022-12-15T13:05:37;0.30;99.90
8643;DHT22;4359;49.358;11.256;2022-12-15T13:10:32;0.20;99.90
8643;DHT22;4359;49.358;11.256;2022-12-15T13:13:14;0.30;99.90
8643;DHT22;4359;49.358;11.256;2022-12-15T13:15:49;0.30;99.90
8643;DHT22;4359;49.358;11.256;2022-12-15T13:18:24;0.30;99.90
8643;DHT22;4359;49.358;11.256;2022-12-15T13:20:54;0.40;99.90
8643;DHT22;4359;49.358;11.256;2022-12-15T13:33:33;0.70;99.90
8643;DHT22;4359;49.358;11.256;2022-12-15T13:36:08;0.80;99.90
8643;DHT22;4359;49.358;11.256;2022-12-15T13:38:51;0.90;99.90
8643;DHT22;4359;49.358;11.256;2022-12-15T13:41:23;0.90;99.90
8643;DHT22;4359;49.358;11.256;2022-12-15T13:43:48;0.90;99.90
8643;DHT22;4359;49.358;11.256;2022-12-15T13:46:15;0.90;99.90
8643;DHT22;4359;49.358;11.256;2022-12-15T13:48:45;1.00;99.90
8643;DHT22;4359;49.358;11.256;2022-12-15T13:53:38;0.90;99.90
8643;DHT22;4359;49.358;11.256;2022-12-15T13:56:18;0.80;99.90
8643;DHT22;4359;49.358;11.256;2022-12-15T13:58:46;0.80;99.90
8643;DHT22;4359;49.358;11.256;2022-12-15T14:01:23;0.70;99.90
8643;DHT22;4359;49.358;11.256;2022-12-15T14:04:02;0.70;99.90
8643;DHT22;4359;49.358;11.256;2022-12-15T14:06:33;0.60;99.90
8643;DHT22;4359;49.358;11.256;2022-12-15T14:08:58;0.50;99.90
8643;DHT22;4359;49.358;11.256;2022-12-15T14:11:24;0.50;99.90
8643;DHT22;4359;49.358;11.256;2022-12-15T14:13:51;0.40;99.90
8643;DHT22;4359;49.358;11.256;2022-12-15T14:16:18;0.20;99.90
8643;DHT22;4359;49.358;11.256;2022-12-15T14:18:44;0.10;99.90
8643;DHT22;4359;49.358;11.256;2022-12-15T14:21:26;0.00;99.90
8643;DHT22;4359;49.358;11.256;2022-12-15T14:23:51;-0.10;99.90
8643;DHT22;4359;49.358;11.256;2022-12-15T14:26:17;-0.20;99.90
8643;DHT22;4359;49.358;11.256;2022-12-15T14:28:44;-0.20;99.90
8643;DHT22;4359;49.358;11.256;2022-12-15T14:31:19;-0.20;99.90
8643;DHT22;4359;49.358;11.256;2022-12-15T14:33:46;-0.30;99.90
8643;DHT22;4359;49.358;11.256;2022-12-15T14:36:12;-0.50;99.90
8643;DHT22;4359;49.358;11.256;2022-12-15T14:41:37;-0.60;99.90
8643;DHT22;4359;49.358;11.256;2022-12-15T14:44:05;-0.60;99.90
8643;DHT22;4359;49.358;11.256;2022-12-15T14:46:32;-0.50;99.90
8643;DHT22;4359;49.358;11.256;2022-12-15T14:48:59;-0.50;99.90
8643;DHT22;4359;49.358;11.256;2022-12-15T14:51:25;-0.60;99.90
8643;DHT22;4359;49.358;11.256;2022-12-15T14:53:52;-0.50;99.90
8643;DHT22;4359;49.358;11.256;2022-12-15T14:58:44;-0.50;99.90
8643;DHT22;4359;49.358;11.256;2022-12-15T15:04:03;-0.70;99.90
8643;DHT22;4359;49.358;11.256;2022-12-15T15:06:31;-0.70;99.90
8643;DHT22;4359;49.358;11.256;2022-12-15T15:09:02;-0.90;99.90
8643;DHT22;4359;49.358;11.256;2022-12-15T15:11:29;-0.90;99.90
8643;DHT22;4359;49.358;11.256;2022-12-15T15:13:57;-0.90;99.90
8643;DHT22;4359;49.358;11.256;2022-12-15T15:16:23;-1.00;99.90
8643;DHT22;4359;49.358;11.256;2022-12-15T15:18:49;-1.10;99.90
8643;DHT22;4359;49.358;11.256;2022-12-15T15:21:17;-1.10;99.90
8643;DHT22;4359;49.358;11.256;2022-12-15T15:24:31;-1.20;99.90
8643;DHT22;4359;49.358;11.256;2022-12-15T15:26:29;-1.30;99.90
8643;DHT22;4359;49.358;11.256;2022-12-15T15:28:55;-1.40;99.90
8643;DHT22;4359;49.358;11.256;2022-12-15T15:33:49;-1.40;99.90
8643;DHT22;4359;49.358;11.256;2022-12-15T15:36:15;-1.40;99.90
8643;DHT22;4359;49.358;11.256;2022-12-15T15:38:41;-1.50;99.90
8643;DHT22;4359;49.358;11.256;2022-12-15T15:43:38;-1.50;99.90
8643;DHT22;4359;49.358;11.256;2022-12-15T15:46:04;-1.50;99.90
8643;DHT22;4359;49.358;11.256;2022-12-15T15:48:35;-1.50;99.90
8643;DHT22;4359;49.358;11.256;2022-12-15T15:51:01;-1.60;99.90
8643;DHT22;4359;49.358;11.256;2022-12-15T15:53:28;-1.60;99.90
8643;DHT22;4359;49.358;11.256;2022-12-15T15:55:54;-1.60;99.90
8643;DHT22;4359;49.358;11.256;2022-12-15T15:58:20;-1.60;99.90
8643;DHT22;4359;49.358;11.256;2022-12-15T16:00:46;-1.60;99.90
8643;DHT22;4359;49.358;11.256;2022-12-15T16:03:12;-1.70;99.90
8643;DHT22;4359;49.358;11.256;2022-12-15T16:05:37;-1.70;99.90
8643;DHT22;4359;49.358;11.256;2022-12-15T16:08:03;-1.80;99.90
8643;DHT22;4359;49.358;11.256;2022-12-15T16:10:29;-1.80;99.90
8643;DHT22;4359;49.358;11.256;2022-12-15T16:12:56;-1.80;99.90
8643;DHT22;4359;49.358;11.256;2022-12-15T16:15:26;-1.90;99.90
8643;DHT22;4359;49.358;11.256;2022-12-15T16:17:52;-1.90;99.90
8643;DHT22;4359;49.358;11.256;2022-12-15T16:20:18;-2.00;99.90
8643;DHT22;4359;49.358;11.256;2022-12-15T16:22:46;-2.10;99.90
8643;DHT22;4359;49.358;11.256;2022-12-15T16:25:12;-2.10;99.90
8643;DHT22;4359;49.358;11.256;2022-12-15T16:27:39;-2.20;99.90
8643;DHT22;4359;49.358;11.256;2022-12-15T16:30:12;-2.30;99.90
8643;DHT22;4359;49.358;11.256;2022-12-15T16:32:38;-2.40;99.90
8643;DHT22;4359;49.358;11.256;2022-12-15T16:35:04;-2.50;99.90
8643;DHT22;4359;49.358;11.256;2022-12-15T16:37:29;-2.50;99.90
8643;DHT22;4359;49.358;11.256;2022-12-15T16:39:55;-2.50;99.90
8643;DHT22;4359;49.358;11.256;2022-12-15T16:42:20;-2.60;99.90
8643;DHT22;4359;49.358;11.256;2022-12-15T16:44:46;-2.60;99.90
8643;DHT22;4359;49.358;11.256;2022-12-15T16:47:11;-2.60;99.90
8643;DHT22;4359;49.358;11.256;2022-12-15T16:49:37;-2.60;99.90
8643;DHT22;4359;49.358;11.256;2022-12-15T16:52:02;-2.70;99.90
8643;DHT22;4359;49.358;11.256;2022-12-15T16:54:29;-2.70;99.90
8643;DHT22;4359;49.358;11.256;2022-12-15T16:56:55;-2.70;99.90
8643;DHT22;4359;49.358;11.256;2022-12-15T16:59:22;-2.70;99.90
8643;DHT22;4359;49.358;11.256;2022-12-15T17:01:48;-2.70;99.90
8643;DHT22;4359;49.358;11.256;2022-12-15T17:04:13;-2.80;99.90
8643;DHT22;4359;49.358;11.256;2022-12-15T17:06:40;-2.80;99.90
8643;DHT22;4359;49.358;11.256;2022-12-15T17:09:06;-2.80;99.90
8643;DHT22;4359;49.358;11.256;2022-12-15T17:11:33;-2.80;99.90
8643;DHT22;4359;49.358;11.256;2022-12-15T17:13:59;-2.80;99.90
8643;DHT22;4359;49.358;11.256;2022-12-15T17:16:25;-2.80;99.90
8643;DHT22;4359;49.358;11.256;2022-12-15T17:18:51;-2.90;99.90
8643;DHT22;4359;49.358;11.256;2022-12-15T17:21:18;-2.90;99.90
8643;DHT22;4359;49.358;11.256;2022-12-15T17:23:44;-3.00;99.90
8643;DHT22;4359;49.358;11.256;2022-12-15T17:26:20;-3.00;99.90
8643;DHT22;4359;49.358;11.256;2022-12-15T17:28:46;-3.10;99.90
8643;DHT22;4359;49.358;11.256;2022-12-15T17:31:18;-3.20;99.90
8643;DHT22;4359;49.358;11.256;2022-12-15T17:33:44;-3.20;99.90
8643;DHT22;4359;49.358;11.256;2022-12-15T17:36:17;-3.30;99.90
8643;DHT22;4359;49.358;11.256;2022-12-15T17:38:43;-3.30;99.90
8643;DHT22;4359;49.358;11.256;2022-12-15T17:41:12;-3.30;99.90
8643;DHT22;4359;49.358;11.256;2022-12-15T17:43:38;-3.40;99.90
8643;DHT22;4359;49.358;11.256;2022-12-15T17:46:05;-3.40;99.90
8643;DHT22;4359;49.358;11.256;2022-12-15T17:48:30;-3.40;99.90
8643;DHT22;4359;49.358;11.256;2022-12-15T17:50:56;-3.40;99.90
8643;DHT22;4359;49.358;11.256;2022-12-15T17:53:22;-3.50;99.90
8643;DHT22;4359;49.358;11.256;2022-12-15T17:55:49;-3.50;99.90
8643;DHT22;4359;49.358;11.256;2022-12-15T17:58:24;-3.40;99.90
8643;DHT22;4359;49.358;11.256;2022-12-15T18:00:51;-3.40;99.90
8643;DHT22;4359;49.358;11.256;2022-12-15T18:03:17;-3.40;99.90
8643;DHT22;4359;49.358;11.256;2022-12-15T18:05:43;-3.50;99.90
8643;DHT22;4359;49.358;11.256;2022-12-15T18:08:13;-3.50;99.90
8643;DHT22;4359;49.358;11.256;2022-12-15T18:10:39;-3.50;99.90
8643;DHT22;4359;49.358;11.256;2022-12-15T18:13:18;-3.50;99.90